Friday, October 19, 2018 at 6:30 a.m

AVIATION AREA FORECAST

SIGNIFICANT FEATURE… A Tropical Wave east of Jamaica.

Comment….... The Tropical Wave is expected to move across Jamaica this afternoon.

24-HOUR FORECAST
This Morning… Partly cloudy.
This Afternoon… Isolated showers and thunderstorms across
sections of most parishes. Windy conditions across southern parishes.
Tonight… Partly cloudy.

CLOUDS GENERALLY ACROSS THE ISLAND:
This Morning... FEW020 FEW022CB
This Afternoon… SCT018 SCT020CB

WINDS AND TEMPERATURES

Flight 20N 80W 20N 75W
Levels WIND/TEMP WIND/TEMP
450 08014KT/-66 07008KT/-66
390 09008KT/-52 10014KT/-52
340 09010KT/-41 10015KT/-42
300 11014KT/-32 08012KT/-33
240 12019KT/-16 09017KT/-15
180 11023KT/-04 10019KT/-03
100 08017KT/11 08019KT/10
50 08021KT/18 08025KT/18

Flight 15N 80W 15N 75W
Levels WIND/TEMP WIND/TEMP
450 23019KT/-68 24014KT/-67
390 22012KT/-53 25019KT/-52
340 31004KT/-40 32015KT/-40
300 34006KT/-30 06008KT/-31
240 10014KT/-15 08021KT/-15
180 08014KT/-04 07021KT/-02
100 07017KT/10 08017KT/09
50 09021KT/19 08021KT/18

AERODROME FORECAST
TAF
MKJP 191115Z 1912/2012 11010KT 9999 FEW022CB
BECMG 1914/1916 14020KT
BECMG 2001/2003 35005KT=

TAF
MKJS 191115Z 1912/2012 VRB03KT 9999 FEW022
BECMG 1914/1916 07015KT
TEMPO 1918/1921 8000 TSRA SCT018 BKN020CB
BECMG 2001/2003 VRB03KT=

CDJ